createdAt,value
2023-05-10T00:01:42.958Z,32.70
2023-05-10T00:04:10.126Z,36.33
2023-05-10T00:06:37.240Z,31.97
2023-05-10T00:09:04.318Z,35.07
2023-05-10T00:11:31.397Z,35.37
2023-05-10T00:13:59.767Z,34.10
2023-05-10T00:16:26.865Z,36.10
2023-05-10T00:18:53.985Z,35.00
2023-05-10T00:21:21.381Z,38.73
2023-05-10T00:23:48.463Z,42.00
2023-05-10T00:26:15.501Z,33.00
2023-05-10T00:28:45.707Z,37.77
2023-05-10T00:31:14.126Z,38.60
2023-05-10T00:33:41.244Z,40.90
2023-05-10T00:36:08.660Z,42.33
2023-05-10T00:38:35.767Z,37.53
2023-05-10T00:41:03.753Z,37.37
2023-05-10T00:43:32.861Z,31.63
2023-05-10T00:46:00.091Z,36.93
2023-05-10T00:48:30.074Z,34.23
2023-05-10T00:50:57.130Z,36.97
2023-05-10T00:53:25.001Z,42.57
2023-05-10T00:55:52.135Z,45.63
2023-05-10T00:58:19.843Z,46.20
2023-05-10T01:00:47.957Z,44.53
2023-05-10T01:03:15.096Z,39.10
2023-05-10T01:05:43.605Z,48.17
2023-05-10T01:08:10.681Z,42.17
2023-05-10T01:10:37.795Z,43.33
2023-05-10T01:13:04.883Z,45.23
2023-05-10T01:15:32.526Z,36.87
2023-05-10T01:17:59.766Z,30.03
2023-05-10T01:20:29.577Z,21.20
2023-05-10T01:23:14.402Z,24.07
2023-05-10T01:25:59.598Z,27.40
2023-05-10T01:28:47.570Z,20.87
2023-05-10T01:31:24.262Z,20.60
2023-05-10T01:33:56.122Z,23.23
2023-05-10T01:36:28.733Z,26.70
2023-05-10T01:38:59.113Z,29.60
2023-05-10T01:41:29.808Z,22.90
2023-05-10T01:43:59.038Z,23.13
2023-05-10T01:46:28.885Z,23.60
2023-05-10T01:48:59.339Z,21.43
2023-05-10T01:51:29.047Z,37.63
2023-05-10T01:53:59.993Z,24.63
2023-05-10T01:56:27.849Z,23.80
2023-05-10T01:58:56.045Z,29.13
2023-05-10T02:01:23.522Z,27.97
2023-05-10T02:03:52.281Z,26.47
2023-05-10T02:06:22.436Z,26.27
2023-05-10T02:08:50.977Z,34.27
2023-05-10T02:11:19.228Z,35.00
2023-05-10T02:13:46.602Z,29.87
2023-05-10T02:16:14.890Z,33.70
2023-05-10T02:18:42.574Z,33.23
2023-05-10T02:21:09.994Z,36.43
2023-05-10T02:23:41.073Z,35.50
2023-05-10T02:26:09.645Z,31.63
2023-05-10T02:28:37.140Z,30.90
2023-05-10T02:31:04.908Z,34.23
2023-05-10T02:33:33.184Z,30.50
2023-05-10T02:36:00.585Z,34.47
2023-05-10T02:38:28.389Z,35.13
2023-05-10T02:40:57.088Z,34.27
2023-05-10T02:43:24.481Z,31.97
2023-05-10T02:45:51.628Z,35.50
2023-05-10T02:48:19.012Z,36.43
2023-05-10T02:50:46.523Z,27.70
2023-05-10T02:53:17.126Z,32.17
2023-05-10T02:55:46.566Z,32.10
2023-05-10T02:58:15.022Z,35.63
2023-05-10T03:00:42.085Z,27.83
2023-05-10T03:03:09.215Z,24.50
2023-05-10T03:05:36.447Z,29.50
2023-05-10T03:08:05.163Z,27.73
2023-05-10T03:10:33.160Z,24.07
2023-05-10T03:13:07.415Z,26.10
2023-05-10T03:15:39.362Z,29.83
2023-05-10T03:18:08.366Z,26.07
2023-05-10T03:20:37.185Z,22.53
2023-05-10T03:23:06.521Z,21.67
2023-05-10T03:25:33.961Z,22.87
2023-05-10T03:28:03.306Z,25.33
2023-05-10T03:30:30.843Z,22.87
2023-05-10T03:32:59.286Z,21.43
2023-05-10T03:35:26.500Z,23.50
2023-05-10T03:37:53.662Z,20.13
2023-05-10T03:40:21.271Z,24.13
2023-05-10T03:42:48.394Z,20.80
2023-05-10T03:45:15.421Z,22.47
2023-05-10T03:47:42.503Z,21.63
2023-05-10T03:50:11.896Z,26.20
2023-05-10T03:52:39.091Z,20.17
2023-05-10T03:55:06.763Z,25.73
2023-05-10T03:57:33.860Z,23.97
2023-05-10T04:00:01.020Z,24.50
2023-05-10T04:02:28.271Z,25.40
2023-05-10T04:04:55.383Z,33.73
2023-05-10T04:07:23.813Z,27.83
2023-05-10T04:09:50.894Z,34.60
2023-05-10T04:12:17.988Z,25.53
2023-05-10T04:14:45.068Z,28.70
2023-05-10T04:17:12.247Z,34.70
2023-05-10T04:19:39.352Z,34.97
2023-05-10T04:22:06.596Z,35.83
2023-05-10T04:24:34.966Z,44.50
2023-05-10T04:27:02.039Z,39.67
2023-05-10T04:29:29.131Z,43.00
2023-05-10T04:31:56.259Z,37.27
2023-05-10T04:34:23.329Z,37.37
2023-05-10T04:36:50.421Z,40.50
2023-05-10T04:39:17.520Z,43.00
2023-05-10T04:41:45.939Z,47.13
2023-05-10T04:44:12.982Z,44.90
2023-05-10T04:46:40.265Z,43.60
2023-05-10T04:49:07.508Z,54.43
2023-05-10T04:51:34.601Z,42.70
2023-05-10T04:54:06.480Z,39.80
2023-05-10T04:56:34.002Z,38.97
2023-05-10T04:59:02.589Z,41.77
2023-05-10T05:01:29.665Z,42.87
2023-05-10T05:03:56.854Z,44.93
2023-05-10T05:06:24.004Z,48.20
2023-05-10T05:08:51.014Z,43.17
2023-05-10T05:11:18.069Z,40.27
2023-05-10T05:13:45.271Z,42.47
2023-05-10T05:16:13.883Z,51.30
2023-05-10T05:18:40.956Z,46.30
2023-05-10T05:21:15.343Z,46.17
2023-05-10T05:23:42.347Z,44.37
2023-05-10T05:26:09.384Z,48.53
2023-05-10T05:28:36.440Z,39.10
2023-05-10T05:31:03.471Z,39.10
2023-05-10T05:33:31.860Z,45.10
2023-05-10T05:35:58.915Z,34.37
2023-05-10T05:38:25.975Z,35.47
2023-05-10T05:40:53.061Z,31.23
2023-05-10T05:43:20.195Z,33.67
2023-05-10T05:45:47.313Z,29.53
2023-05-10T05:48:14.385Z,28.67
2023-05-10T05:50:42.733Z,27.90
2023-05-10T05:53:10.381Z,23.80
2023-05-10T05:55:37.418Z,29.40
2023-05-10T05:58:04.473Z,31.20
2023-05-10T06:00:31.560Z,26.53
2023-05-10T06:02:58.769Z,26.00
2023-05-10T06:05:25.864Z,27.10
2023-05-10T06:07:54.354Z,32.63
2023-05-10T06:10:21.405Z,28.90
2023-05-10T06:12:48.503Z,31.80
2023-05-10T06:15:15.725Z,25.27
2023-05-10T06:17:42.963Z,29.10
2023-05-10T06:20:10.566Z,27.40
2023-05-10T06:22:37.749Z,32.87
2023-05-10T06:25:06.704Z,34.03
2023-05-10T06:27:33.793Z,30.03
2023-05-10T06:30:11.911Z,25.63
2023-05-10T06:32:40.330Z,26.43
2023-05-10T06:35:08.093Z,26.50
2023-05-10T06:37:35.183Z,26.30
2023-05-10T06:40:02.472Z,31.80
2023-05-10T06:42:30.879Z,26.67
2023-05-10T06:44:57.896Z,29.03
2023-05-10T06:47:24.975Z,29.80
2023-05-10T06:49:52.000Z,27.93
2023-05-10T06:52:19.109Z,31.93
2023-05-10T06:54:46.116Z,32.40
2023-05-10T06:57:23.194Z,37.00
2023-05-10T06:59:59.479Z,33.87
2023-05-10T07:02:26.679Z,38.70
2023-05-10T07:04:53.902Z,37.77
2023-05-10T07:07:20.990Z,37.97
2023-05-10T07:09:48.210Z,46.07
2023-05-10T07:12:16.168Z,38.47
2023-05-10T07:14:43.607Z,45.57
2023-05-10T07:17:11.988Z,33.70
2023-05-10T07:19:39.009Z,37.53
2023-05-10T07:22:06.142Z,36.13
2023-05-10T07:24:33.421Z,31.60
2023-05-10T07:27:00.509Z,39.77
2023-05-10T07:29:27.564Z,34.13
2023-05-10T07:31:56.497Z,32.07
2023-05-10T07:34:27.169Z,26.37
2023-05-10T07:36:54.495Z,31.57
2023-05-10T07:39:27.579Z,25.33
2023-05-10T07:41:55.460Z,25.73
2023-05-10T07:44:22.502Z,30.67
2023-05-10T07:46:49.608Z,24.90
2023-05-10T07:49:16.739Z,22.27
2023-05-10T07:51:45.169Z,21.83
2023-05-10T07:54:12.265Z,23.57
2023-05-10T07:56:39.388Z,25.40
2023-05-10T07:59:06.998Z,23.03
2023-05-10T08:01:35.202Z,20.90
2023-05-10T08:04:03.032Z,24.33
2023-05-10T08:06:30.346Z,26.53
2023-05-10T08:08:58.844Z,29.87
2023-05-10T08:11:26.245Z,34.23
2023-05-10T08:13:53.353Z,38.20
2023-05-10T08:16:20.821Z,40.93
2023-05-10T08:18:48.558Z,41.83
2023-05-10T08:21:15.756Z,40.60
2023-05-10T08:23:42.913Z,35.10
2023-05-10T08:26:11.324Z,38.50
2023-05-10T08:28:38.397Z,42.47
2023-05-10T08:31:05.835Z,53.77
2023-05-10T08:33:32.870Z,49.43
2023-05-10T08:35:59.916Z,51.53
2023-05-10T08:38:27.072Z,48.73
2023-05-10T08:40:55.761Z,47.13
2023-05-10T08:43:26.151Z,41.80
2023-05-10T08:45:54.860Z,44.70
2023-05-10T08:48:24.336Z,44.30
2023-05-10T08:50:54.169Z,45.60
2023-05-10T08:53:21.534Z,48.47
2023-05-10T08:55:48.688Z,40.10
2023-05-10T08:58:15.851Z,50.70
2023-05-10T09:00:44.752Z,47.63
2023-05-10T09:03:11.942Z,46.97
2023-05-10T09:05:39.362Z,43.60
2023-05-10T09:08:07.536Z,40.10
2023-05-10T09:10:34.636Z,43.67
2023-05-10T09:13:01.942Z,36.40
2023-05-10T09:15:28.967Z,39.03
2023-05-10T09:17:57.654Z,40.97
2023-05-10T09:20:24.689Z,42.50
2023-05-10T09:22:51.910Z,40.60
2023-05-10T09:25:19.400Z,36.60
2023-05-10T09:27:47.370Z,39.27
2023-05-10T09:30:16.964Z,42.93
2023-05-10T09:32:44.944Z,35.27
2023-05-10T09:35:14.162Z,33.43
2023-05-10T09:37:41.751Z,31.20
2023-05-10T09:40:09.219Z,30.30
2023-05-10T09:42:36.309Z,28.53
2023-05-10T09:45:04.412Z,24.73
2023-05-10T09:47:33.145Z,24.73
2023-05-10T09:50:00.267Z,21.90
2023-05-10T09:52:28.644Z,23.50
2023-05-10T09:54:55.972Z,24.53
2023-05-10T09:57:23.601Z,24.07
2023-05-10T09:59:50.730Z,31.43
2023-05-10T10:02:18.115Z,25.80
2023-05-10T10:04:45.190Z,24.30
2023-05-10T10:07:12.288Z,21.50
2023-05-10T10:09:40.814Z,22.50
2023-05-10T10:12:07.933Z,22.97
2023-05-10T10:14:35.754Z,24.23
2023-05-10T10:19:34.401Z,21.50
2023-05-10T10:22:01.736Z,29.40
2023-05-10T10:24:28.866Z,21.37
2023-05-10T10:26:59.005Z,20.93
2023-05-10T10:29:27.726Z,24.80
2023-05-10T10:32:05.367Z,27.33
2023-05-10T10:34:32.863Z,23.50
2023-05-10T10:37:05.108Z,15.93
2023-05-10T10:39:32.379Z,22.10
2023-05-10T10:42:01.002Z,22.67
2023-05-10T10:44:34.998Z,22.37
2023-05-10T10:47:03.288Z,24.30
2023-05-10T10:49:32.611Z,20.80
2023-05-10T10:52:16.096Z,20.63
2023-05-10T10:54:43.148Z,17.90
2023-05-10T10:57:14.974Z,22.50
2023-05-10T10:59:45.113Z,25.90
2023-05-10T11:02:12.213Z,19.43
2023-05-10T11:04:43.357Z,20.50
2023-05-10T11:07:19.840Z,20.33
2023-05-10T11:09:48.303Z,19.13
2023-05-10T11:12:16.660Z,19.30
2023-05-10T11:14:43.832Z,17.73
2023-05-10T11:17:26.571Z,19.53
2023-05-10T11:20:09.343Z,18.63
2023-05-10T11:22:50.771Z,19.70
2023-05-10T11:25:17.849Z,20.23
2023-05-10T11:27:46.766Z,20.87
2023-05-10T11:30:14.443Z,21.33
2023-05-10T11:32:42.155Z,20.07
2023-05-10T11:35:09.481Z,52.17
2023-05-10T11:37:36.610Z,22.50
2023-05-10T11:40:03.778Z,20.93
2023-05-10T11:42:30.858Z,21.93
2023-05-10T11:44:59.235Z,20.10
2023-05-10T11:47:26.346Z,27.33
2023-05-10T11:49:53.576Z,21.63
2023-05-10T11:52:20.937Z,21.60
2023-05-10T11:54:52.665Z,23.03
2023-05-10T11:57:19.915Z,19.07
2023-05-10T11:59:46.952Z,21.83
2023-05-10T12:02:15.618Z,18.50
2023-05-10T12:04:43.177Z,26.83
2023-05-10T12:07:10.553Z,19.73
2023-05-10T12:09:43.760Z,20.30
2023-05-10T12:12:11.813Z,22.73
2023-05-10T12:14:38.912Z,21.70
2023-05-10T12:17:05.929Z,23.17
2023-05-10T12:19:39.666Z,22.10
2023-05-10T12:22:06.900Z,19.00
2023-05-10T12:24:35.350Z,29.27
2023-05-10T12:29:51.240Z,20.30
2023-05-10T12:32:18.324Z,17.50
2023-05-10T12:34:48.085Z,19.37
2023-05-10T12:37:15.240Z,19.17
2023-05-10T12:39:42.773Z,19.57
2023-05-10T12:42:09.855Z,21.43
2023-05-10T12:44:36.916Z,21.87
2023-05-10T12:47:04.032Z,24.93
2023-05-10T12:49:31.075Z,29.53
2023-05-10T12:51:59.458Z,33.20
2023-05-10T12:54:26.567Z,33.93
2023-05-10T12:56:53.588Z,33.83
2023-05-10T12:59:20.624Z,34.07
2023-05-10T13:01:47.769Z,33.67
2023-05-10T13:04:14.944Z,28.23
2023-05-10T13:06:42.192Z,28.73
2023-05-10T13:09:10.602Z,29.00
2023-05-10T13:11:37.732Z,31.83
2023-05-10T13:14:04.796Z,32.63
2023-05-10T13:16:31.901Z,35.57
2023-05-10T13:18:59.092Z,39.87
2023-05-10T13:21:26.255Z,32.27
2023-05-10T13:23:53.319Z,35.30
2023-05-10T13:26:21.750Z,35.47
2023-05-10T13:28:48.820Z,30.00
2023-05-10T13:31:16.026Z,35.43
2023-05-10T13:33:43.150Z,39.73
2023-05-10T13:36:10.302Z,31.83
2023-05-10T13:38:37.376Z,36.37
2023-05-10T13:41:04.679Z,33.47
2023-05-10T13:43:33.133Z,41.07
2023-05-10T13:46:00.380Z,32.00
2023-05-10T13:48:28.265Z,36.63
2023-05-10T13:50:55.529Z,34.40
2023-05-10T13:53:22.595Z,28.30
2023-05-10T13:55:50.815Z,30.40
2023-05-10T13:58:17.959Z,28.50
2023-05-10T14:00:46.361Z,24.23
2023-05-10T14:03:13.748Z,24.60
2023-05-10T14:05:40.843Z,23.10
2023-05-10T14:08:07.955Z,19.80
2023-05-10T14:10:35.096Z,17.60
2023-05-10T14:13:02.123Z,13.67
2023-05-10T14:15:29.217Z,16.63
2023-05-10T14:17:57.604Z,14.10
2023-05-10T14:20:24.660Z,14.80
2023-05-10T14:22:51.731Z,16.07
2023-05-10T14:25:19.443Z,14.60
2023-05-10T14:27:46.675Z,14.23
2023-05-10T14:30:14.047Z,17.17
2023-05-10T14:32:41.099Z,17.63
2023-05-10T14:35:12.217Z,18.27
2023-05-10T14:37:40.217Z,17.20
2023-05-10T14:40:07.994Z,18.20
2023-05-10T14:42:35.076Z,19.23
2023-05-10T14:45:02.109Z,14.20
2023-05-10T14:47:29.232Z,17.53
2023-05-10T14:49:56.392Z,17.33
2023-05-10T14:52:24.786Z,23.83
2023-05-10T14:54:51.850Z,23.60
2023-05-10T14:57:18.884Z,21.93
2023-05-10T14:59:45.893Z,20.70
2023-05-10T15:02:13.479Z,19.57
2023-05-10T15:04:40.906Z,22.67
2023-05-10T15:07:08.237Z,21.53
2023-05-10T15:09:36.627Z,19.17
2023-05-10T15:12:03.722Z,19.43
2023-05-10T15:14:30.772Z,20.00
2023-05-10T15:16:57.787Z,22.27
2023-05-10T15:19:24.822Z,21.37
2023-05-10T15:21:51.866Z,24.40
2023-05-10T15:24:18.877Z,17.43
2023-05-10T15:26:47.342Z,17.53
2023-05-10T15:29:14.390Z,19.30
2023-05-10T15:31:41.509Z,17.90
2023-05-10T15:34:08.672Z,14.57
2023-05-10T15:36:35.688Z,20.43
2023-05-10T15:39:02.695Z,15.40
2023-05-10T15:41:29.748Z,17.43
2023-05-10T15:43:58.632Z,16.30
2023-05-10T15:46:25.697Z,13.20
2023-05-10T15:48:52.758Z,14.17
2023-05-10T15:51:19.828Z,17.37
2023-05-10T15:54:00.433Z,17.23
2023-05-10T15:56:33.494Z,16.97
2023-05-10T15:59:01.921Z,11.97
2023-05-10T16:01:29.144Z,12.57
2023-05-10T16:03:56.339Z,16.00
2023-05-10T16:06:23.418Z,15.13
2023-05-10T16:08:52.904Z,13.33
2023-05-10T16:11:21.678Z,17.80
2023-05-10T16:13:48.865Z,15.63
2023-05-10T16:16:17.332Z,12.53
2023-05-10T16:18:44.535Z,12.50
2023-05-10T16:21:11.757Z,12.47
2023-05-10T16:23:38.804Z,11.87
2023-05-10T16:26:05.847Z,14.03
2023-05-10T16:28:32.896Z,11.67
2023-05-10T16:30:59.963Z,15.00
2023-05-10T16:33:28.482Z,8.23
2023-05-10T16:35:55.560Z,10.80
2023-05-10T16:38:22.610Z,9.30
2023-05-10T16:40:50.051Z,11.57
2023-05-10T16:43:17.136Z,11.47
2023-05-10T16:45:44.190Z,9.50
2023-05-10T16:48:11.239Z,8.10
2023-05-10T16:50:39.598Z,12.10
2023-05-10T16:53:06.680Z,9.30
2023-05-10T16:55:33.737Z,7.00
2023-05-10T16:58:00.867Z,4.20
2023-05-10T17:00:28.008Z,5.57
2023-05-10T17:02:55.348Z,4.40
2023-05-10T17:05:22.778Z,7.50
2023-05-10T17:07:51.196Z,3.27
2023-05-10T17:10:18.553Z,3.10
2023-05-10T17:12:46.030Z,2.80
2023-05-10T17:15:13.274Z,3.10
2023-05-10T17:17:40.432Z,2.67
2023-05-10T17:20:08.399Z,3.00
2023-05-10T17:22:35.542Z,2.03
2023-05-10T17:25:04.115Z,4.60
2023-05-10T17:27:31.150Z,2.47
2023-05-10T17:29:58.395Z,2.27
2023-05-10T17:32:25.733Z,2.93
2023-05-10T17:34:52.913Z,3.80
2023-05-10T17:37:19.920Z,3.20
2023-05-10T17:39:47.013Z,4.70
2023-05-10T17:42:15.443Z,3.80
2023-05-10T17:44:42.514Z,4.73
2023-05-10T17:47:09.562Z,4.43
2023-05-10T17:49:36.634Z,3.07
2023-05-10T17:52:03.735Z,6.33
2023-05-10T17:54:30.850Z,5.60
2023-05-10T17:56:57.946Z,2.80
2023-05-10T17:59:26.381Z,3.93
2023-05-10T18:01:53.502Z,1.90
2023-05-10T18:04:20.592Z,3.63
2023-05-10T18:06:47.711Z,5.30
2023-05-10T18:09:14.827Z,3.50
2023-05-10T18:11:41.934Z,5.03
2023-05-10T18:14:09.088Z,5.03
2023-05-10T18:16:37.545Z,5.23
2023-05-10T18:19:04.807Z,3.47
2023-05-10T18:21:32.036Z,3.67
2023-05-10T18:23:59.146Z,3.20
2023-05-10T18:26:26.247Z,4.10
2023-05-10T18:28:53.389Z,5.93
2023-05-10T18:31:20.460Z,3.30
2023-05-10T18:33:48.991Z,4.83
2023-05-10T18:36:16.092Z,3.63
2023-05-10T18:38:43.205Z,4.00
2023-05-10T18:41:10.286Z,5.07
2023-05-10T18:43:37.417Z,3.53
2023-05-10T18:46:04.517Z,3.87
2023-05-10T18:48:31.678Z,9.93
2023-05-10T18:51:00.178Z,3.10
2023-05-10T18:53:27.385Z,4.93
2023-05-10T18:55:57.740Z,2.80
2023-05-10T18:58:24.960Z,3.60
2023-05-10T19:00:52.628Z,3.50
2023-05-10T19:03:19.723Z,5.37
2023-05-10T19:05:46.769Z,6.63
2023-05-10T19:08:15.252Z,3.37
2023-05-10T19:10:42.307Z,6.67
2023-05-10T19:13:09.375Z,6.20
2023-05-10T19:15:36.509Z,3.63
2023-05-10T19:18:04.531Z,5.03
2023-05-10T19:20:31.675Z,5.47
2023-05-10T19:23:09.766Z,5.10
2023-05-10T19:25:38.892Z,5.50
2023-05-10T19:28:05.989Z,5.63
2023-05-10T19:30:33.147Z,10.03
2023-05-10T19:33:00.501Z,6.47
2023-05-10T19:35:27.616Z,7.03
2023-05-10T19:37:54.771Z,6.73
2023-05-10T19:40:21.912Z,11.60
2023-05-10T19:42:50.325Z,9.10
2023-05-10T19:45:17.727Z,9.57
2023-05-10T19:47:45.029Z,9.30
2023-05-10T19:50:12.200Z,6.83
2023-05-10T19:52:39.351Z,12.17
2023-05-10T19:55:06.992Z,10.83
2023-05-10T19:57:34.109Z,11.37
2023-05-10T20:00:02.587Z,7.27
2023-05-10T20:02:38.357Z,10.97
2023-05-10T20:05:05.802Z,11.40
2023-05-10T20:07:32.871Z,7.33
2023-05-10T20:10:00.124Z,10.30
2023-05-10T20:12:27.811Z,10.87
2023-05-10T20:14:54.986Z,9.43
2023-05-10T20:17:23.349Z,9.73
2023-05-10T20:19:50.414Z,8.90
2023-05-10T20:22:17.446Z,9.87
2023-05-10T20:24:44.536Z,8.70
2023-05-10T20:27:11.557Z,13.30
2023-05-10T20:29:38.579Z,9.40
2023-05-10T20:32:05.872Z,13.87
2023-05-10T20:34:34.742Z,11.50
2023-05-10T20:37:01.907Z,11.90
2023-05-10T20:39:29.034Z,13.80
2023-05-10T20:41:56.081Z,14.00
2023-05-10T20:44:23.173Z,13.87
2023-05-10T20:46:50.227Z,16.40
2023-05-10T20:49:17.318Z,12.57
2023-05-10T20:51:45.736Z,12.97
2023-05-10T20:54:12.883Z,13.90
2023-05-10T20:56:40.363Z,13.93
2023-05-10T20:59:07.439Z,12.00
2023-05-10T21:01:34.525Z,13.60
2023-05-10T21:04:01.555Z,22.47
2023-05-10T21:06:28.588Z,16.23
2023-05-10T21:08:56.992Z,17.37
2023-05-10T21:11:24.155Z,11.97
2023-05-10T21:13:51.480Z,16.83
2023-05-10T21:16:18.642Z,17.43
2023-05-10T21:18:45.725Z,14.60
2023-05-10T21:21:12.823Z,13.33
2023-05-10T21:23:39.954Z,16.00
2023-05-10T21:26:08.358Z,16.87
2023-05-10T21:28:35.409Z,16.80
2023-05-10T21:31:02.483Z,19.53
2023-05-10T21:33:29.578Z,15.93
2023-05-10T21:35:57.077Z,17.33
2023-05-10T21:38:24.220Z,17.90
2023-05-10T21:40:51.261Z,14.67
2023-05-10T21:43:19.692Z,18.40
2023-05-10T21:45:46.770Z,16.83
2023-05-10T21:48:14.106Z,14.93
2023-05-10T21:50:41.210Z,14.13
2023-05-10T21:53:08.301Z,14.40
2023-05-10T21:55:35.389Z,17.73
2023-05-10T21:58:02.476Z,20.27
2023-05-10T22:00:32.798Z,16.43
2023-05-10T22:03:01.285Z,18.87
2023-05-10T22:05:28.523Z,17.40
2023-05-10T22:07:55.568Z,16.33
2023-05-10T22:10:22.600Z,22.30
2023-05-10T22:12:49.605Z,15.80
2023-05-10T22:15:16.695Z,16.87
2023-05-10T22:17:45.139Z,15.53
2023-05-10T22:20:12.407Z,20.90
2023-05-10T22:22:39.487Z,19.80
2023-05-10T22:25:06.975Z,23.70
2023-05-10T22:27:34.011Z,20.60
2023-05-10T22:30:01.063Z,23.00
2023-05-10T22:32:28.293Z,14.60
2023-05-10T22:34:56.827Z,17.10
2023-05-10T22:37:23.968Z,14.37
2023-05-10T22:39:51.078Z,20.70
2023-05-10T22:42:18.139Z,19.73
2023-05-10T22:44:45.183Z,21.70
2023-05-10T22:47:12.228Z,20.97
2023-05-10T22:49:39.215Z,24.40
2023-05-10T22:52:07.692Z,19.40
2023-05-10T22:54:36.289Z,23.87
2023-05-10T22:57:03.527Z,22.23
2023-05-10T22:59:30.607Z,23.33
2023-05-10T23:01:57.741Z,25.27
2023-05-10T23:04:25.053Z,30.73
2023-05-10T23:06:52.252Z,22.63
2023-05-10T23:09:20.613Z,24.10
2023-05-10T23:11:47.672Z,23.17
2023-05-10T23:14:14.765Z,20.10
2023-05-10T23:16:41.909Z,24.20
2023-05-10T23:19:09.060Z,24.73
2023-05-10T23:21:36.179Z,24.63
2023-05-10T23:24:03.298Z,24.53
2023-05-10T23:26:31.798Z,30.60
2023-05-10T23:28:58.854Z,31.70
2023-05-10T23:31:25.948Z,30.67
2023-05-10T23:33:53.048Z,28.20
2023-05-10T23:36:20.127Z,30.70
2023-05-10T23:38:47.170Z,34.63
2023-05-10T23:41:14.358Z,35.20
2023-05-10T23:43:42.772Z,31.97
2023-05-10T23:46:09.944Z,29.97
2023-05-10T23:48:37.188Z,34.20
2023-05-10T23:51:04.444Z,33.73
2023-05-10T23:53:31.533Z,38.93
2023-05-10T23:55:58.550Z,44.00
2023-05-10T23:58:25.674Z,41.50
